createdAt,value
2022-12-24T00:02:21.411Z,0.50
2022-12-24T00:04:53.041Z,0.30
2022-12-24T00:07:24.457Z,0.47
2022-12-24T00:09:51.793Z,0.40
2022-12-24T00:12:19.164Z,0.30
2022-12-24T00:14:46.511Z,0.70
2022-12-24T00:17:14.279Z,0.40
2022-12-24T00:19:43.180Z,0.40
2022-12-24T00:22:11.947Z,0.40
2022-12-24T00:24:39.358Z,0.60
2022-12-24T00:27:06.702Z,0.63
2022-12-24T00:29:35.015Z,0.30
2022-12-24T00:32:02.679Z,0.80
2022-12-24T00:34:30.058Z,0.40
2022-12-24T00:36:57.463Z,0.10
2022-12-24T00:39:26.450Z,0.47
2022-12-24T00:41:53.809Z,0.60
2022-12-24T00:44:21.467Z,0.30
2022-12-24T00:46:48.868Z,0.90
2022-12-24T00:49:16.538Z,0.20
2022-12-24T00:51:43.991Z,0.40
2022-12-24T00:54:11.491Z,0.50
2022-12-24T00:56:40.156Z,0.50
2022-12-24T00:59:07.532Z,0.33
2022-12-24T01:01:35.911Z,0.30
2022-12-24T01:04:21.440Z,0.60
2022-12-24T01:06:48.840Z,0.60
2022-12-24T01:09:16.210Z,0.87
2022-12-24T01:11:46.225Z,0.40
2022-12-24T01:14:13.740Z,0.77
2022-12-24T01:16:41.230Z,0.47
2022-12-24T01:19:09.151Z,0.30
2022-12-24T01:21:36.484Z,0.43
2022-12-24T01:24:04.155Z,1.03
2022-12-24T01:26:31.937Z,0.60
2022-12-24T01:29:01.291Z,0.60
2022-12-24T01:31:28.746Z,0.70
2022-12-24T01:33:56.119Z,0.50
2022-12-24T01:36:23.513Z,0.63
2022-12-24T01:38:50.911Z,0.57
2022-12-24T01:41:45.377Z,0.40
2022-12-24T01:44:18.776Z,0.67
2022-12-24T01:46:46.412Z,0.50
2022-12-24T01:49:14.628Z,0.80
2022-12-24T01:51:43.808Z,0.20
2022-12-24T01:54:12.780Z,0.80
2022-12-24T01:56:43.176Z,0.87
2022-12-24T01:59:13.360Z,0.63
2022-12-24T02:01:42.164Z,0.40
2022-12-24T02:04:13.068Z,0.73
2022-12-24T02:06:40.412Z,0.57
2022-12-24T02:09:08.420Z,0.37
2022-12-24T02:11:37.861Z,0.80
2022-12-24T02:14:05.254Z,0.57
2022-12-24T02:16:39.211Z,1.10
2022-12-24T02:19:18.122Z,0.53
2022-12-24T02:21:48.965Z,0.10
2022-12-24T02:24:33.425Z,0.90
2022-12-24T02:27:15.769Z,0.43
2022-12-24T02:29:50.729Z,0.80
2022-12-24T02:32:21.650Z,0.40
2022-12-24T02:34:52.965Z,0.50
2022-12-24T02:37:23.032Z,0.53
2022-12-24T02:39:53.718Z,0.57
2022-12-24T02:42:23.145Z,0.30
2022-12-24T02:44:55.332Z,0.60
2022-12-24T02:47:24.094Z,0.50
2022-12-24T02:49:51.437Z,0.50
2022-12-24T02:52:28.959Z,0.70
2022-12-24T02:54:56.428Z,0.40
2022-12-24T02:57:29.368Z,0.83
2022-12-24T03:00:03.743Z,0.40
2022-12-24T03:02:37.723Z,0.70
2022-12-24T03:05:10.568Z,0.20
2022-12-24T03:07:39.907Z,0.50
2022-12-24T03:10:12.849Z,0.40
2022-12-24T03:12:42.274Z,0.63
2022-12-24T03:15:13.467Z,0.30
2022-12-24T03:17:41.804Z,0.50
2022-12-24T03:20:11.145Z,0.70
2022-12-24T03:22:38.852Z,0.70
2022-12-24T03:25:07.173Z,0.40
2022-12-24T03:27:35.649Z,0.70
2022-12-24T03:30:04.157Z,0.70
2022-12-24T03:32:33.521Z,0.40
2022-12-24T03:35:00.940Z,0.70
2022-12-24T03:37:28.290Z,0.57
2022-12-24T03:39:55.627Z,0.73
2022-12-24T03:42:22.978Z,0.37
2022-12-24T03:44:50.333Z,0.37
2022-12-24T03:47:17.902Z,0.50
2022-12-24T03:49:46.901Z,0.57
2022-12-24T03:52:14.352Z,0.70
2022-12-24T03:54:42.005Z,0.90
2022-12-24T03:57:09.504Z,0.40
2022-12-24T03:59:37.156Z,0.77
2022-12-24T04:02:04.916Z,0.27
2022-12-24T04:04:33.494Z,0.63
2022-12-24T04:07:02.274Z,0.47
2022-12-24T04:09:29.738Z,0.33
2022-12-24T04:11:57.078Z,0.53
2022-12-24T04:14:24.618Z,1.77
2022-12-24T04:16:52.005Z,0.43
2022-12-24T04:19:19.561Z,0.80
2022-12-24T04:21:46.917Z,0.23
2022-12-24T04:24:15.739Z,0.20
2022-12-24T04:26:43.068Z,0.40
2022-12-24T04:29:10.530Z,0.70
2022-12-24T04:31:38.155Z,0.67
2022-12-24T04:34:05.540Z,0.30
2022-12-24T04:36:32.902Z,0.67
2022-12-24T04:39:00.258Z,0.37
2022-12-24T04:41:28.996Z,0.63
2022-12-24T04:43:56.639Z,0.47
2022-12-24T04:46:25.086Z,0.20
2022-12-24T04:48:53.535Z,0.57
2022-12-24T04:51:21.432Z,0.77
2022-12-24T04:53:48.995Z,0.63
2022-12-24T04:56:17.397Z,0.67
2022-12-24T04:58:46.235Z,0.97
2022-12-24T05:01:14.837Z,0.20
2022-12-24T05:03:42.942Z,1.07
2022-12-24T05:06:12.502Z,0.40
2022-12-24T05:08:40.106Z,0.83
2022-12-24T05:11:07.965Z,1.00
2022-12-24T05:13:44.035Z,0.67
2022-12-24T05:16:15.096Z,0.70
2022-12-24T05:18:42.565Z,0.60
2022-12-24T05:21:10.754Z,0.67
2022-12-24T05:24:00.966Z,0.60
2022-12-24T05:26:29.711Z,0.60
2022-12-24T05:28:57.796Z,1.00
2022-12-24T05:31:27.035Z,1.23
2022-12-24T05:33:54.993Z,0.67
2022-12-24T05:36:23.052Z,0.70
2022-12-24T05:38:50.446Z,0.27
2022-12-24T05:41:17.775Z,1.60
2022-12-24T05:43:45.283Z,0.20
2022-12-24T05:46:13.675Z,0.60
2022-12-24T05:48:42.453Z,0.53
2022-12-24T05:51:11.307Z,0.50
2022-12-24T05:53:39.504Z,1.10
2022-12-24T05:56:07.748Z,0.77
2022-12-24T05:58:35.146Z,0.43
2022-12-24T06:01:03.124Z,1.00
2022-12-24T06:03:30.711Z,0.80
2022-12-24T06:06:03.323Z,0.40
2022-12-24T06:08:31.827Z,0.37
2022-12-24T06:10:59.552Z,0.90
2022-12-24T06:13:27.331Z,0.83
2022-12-24T06:15:55.876Z,0.77
2022-12-24T06:18:23.605Z,0.87
2022-12-24T06:20:51.501Z,0.87
2022-12-24T06:23:20.174Z,0.67
2022-12-24T06:25:47.544Z,0.83
2022-12-24T06:28:14.997Z,0.50
2022-12-24T06:30:42.773Z,0.40
2022-12-24T06:33:10.397Z,0.47
2022-12-24T06:35:37.724Z,0.97
2022-12-24T06:38:05.081Z,0.43
2022-12-24T06:40:33.756Z,0.60
2022-12-24T06:43:01.112Z,0.30
2022-12-24T06:45:28.433Z,0.63
2022-12-24T06:47:55.783Z,0.80
2022-12-24T06:50:23.095Z,0.67
2022-12-24T06:52:50.555Z,0.70
2022-12-24T06:55:17.995Z,0.20
2022-12-24T06:57:46.784Z,0.70
2022-12-24T07:00:15.177Z,0.30
2022-12-24T07:02:42.644Z,0.70
2022-12-24T07:05:10.950Z,0.77
2022-12-24T07:07:38.602Z,0.70
2022-12-24T07:10:06.873Z,0.77
2022-12-24T07:12:34.248Z,0.90
2022-12-24T07:15:03.036Z,0.67
2022-12-24T07:17:30.530Z,0.33
2022-12-24T07:19:57.916Z,0.77
2022-12-24T07:22:25.316Z,1.33
2022-12-24T07:24:52.680Z,0.87
2022-12-24T07:27:20.632Z,0.93
2022-12-24T07:29:48.378Z,1.17
2022-12-24T07:32:17.087Z,1.03
2022-12-24T07:34:44.631Z,0.40
2022-12-24T07:37:11.986Z,0.73
2022-12-24T07:39:39.449Z,0.70
2022-12-24T07:42:07.948Z,0.60
2022-12-24T07:44:36.452Z,0.20
2022-12-24T07:47:03.883Z,0.53
2022-12-24T07:49:32.858Z,0.50
2022-12-24T07:52:00.196Z,0.67
2022-12-24T07:54:27.537Z,0.30
2022-12-24T07:56:54.992Z,0.23
2022-12-24T07:59:22.441Z,0.90
2022-12-24T08:01:49.939Z,0.93
2022-12-24T08:04:17.547Z,0.30
2022-12-24T08:06:46.659Z,0.93
2022-12-24T08:09:15.201Z,0.70
2022-12-24T08:11:49.700Z,0.90
2022-12-24T08:14:19.190Z,0.50
2022-12-24T08:16:46.741Z,0.97
2022-12-24T08:19:14.212Z,1.03
2022-12-24T08:21:41.626Z,0.80
2022-12-24T08:24:10.586Z,0.90
2022-12-24T08:26:37.934Z,0.70
2022-12-24T08:29:05.789Z,0.93
2022-12-24T08:31:36.438Z,0.73
2022-12-24T08:34:04.256Z,1.27
2022-12-24T08:36:31.641Z,0.87
2022-12-24T08:38:59.375Z,0.60
2022-12-24T08:41:28.231Z,0.50
2022-12-24T08:43:55.591Z,0.93
2022-12-24T08:46:23.076Z,0.67
2022-12-24T08:48:50.477Z,0.83
2022-12-24T08:51:19.111Z,1.03
2022-12-24T08:53:47.181Z,1.00
2022-12-24T08:56:14.683Z,0.60
2022-12-24T08:58:43.390Z,0.73
2022-12-24T09:01:12.363Z,0.27
2022-12-24T09:03:39.930Z,1.50
2022-12-24T09:06:15.249Z,0.97
2022-12-24T09:08:42.810Z,1.00
2022-12-24T09:11:11.900Z,1.20
2022-12-24T09:13:39.399Z,0.60
2022-12-24T09:16:09.009Z,1.20
2022-12-24T09:18:36.495Z,1.00
2022-12-24T09:21:05.238Z,1.47
2022-12-24T09:23:33.687Z,1.53
2022-12-24T09:26:01.115Z,1.10
2022-12-24T09:28:28.479Z,1.10
2022-12-24T09:30:59.979Z,0.43
2022-12-24T09:33:28.884Z,1.07
2022-12-24T09:35:56.506Z,0.70
2022-12-24T09:38:24.286Z,1.20
2022-12-24T09:40:52.654Z,0.70
2022-12-24T09:43:21.570Z,0.87
2022-12-24T09:45:53.859Z,1.53
2022-12-24T09:48:23.972Z,1.20
2022-12-24T09:50:54.144Z,1.20
2022-12-24T09:53:23.171Z,0.53
2022-12-24T09:55:52.489Z,1.17
2022-12-24T09:58:24.554Z,0.73
2022-12-24T10:00:52.562Z,1.27
2022-12-24T10:03:20.352Z,0.50
2022-12-24T10:05:52.416Z,1.23
2022-12-24T10:08:24.719Z,1.40
2022-12-24T10:10:53.715Z,1.40
2022-12-24T10:13:29.844Z,1.17
2022-12-24T10:16:01.387Z,1.27
2022-12-24T10:18:34.997Z,0.40
2022-12-24T10:21:06.924Z,0.70
2022-12-24T10:23:37.946Z,1.07
2022-12-24T10:26:08.283Z,1.37
2022-12-24T10:28:43.552Z,1.40
2022-12-24T10:31:11.483Z,1.00
2022-12-24T10:33:41.862Z,0.73
2022-12-24T10:36:12.431Z,0.60
2022-12-24T10:38:41.313Z,0.60
2022-12-24T10:41:09.181Z,1.17
2022-12-24T10:43:37.531Z,0.73
2022-12-24T10:46:07.011Z,1.30
2022-12-24T10:48:38.113Z,0.90
2022-12-24T10:51:07.715Z,0.80
2022-12-24T10:53:39.726Z,0.20
2022-12-24T10:56:10.185Z,0.33
2022-12-24T10:58:37.817Z,1.37
2022-12-24T11:01:05.828Z,0.90
2022-12-24T11:03:34.769Z,0.90
2022-12-24T11:06:06.830Z,0.70
2022-12-24T11:08:34.893Z,0.73
2022-12-24T11:11:03.202Z,0.80
2022-12-24T11:13:38.064Z,0.70
2022-12-24T11:16:07.404Z,1.03
2022-12-24T11:18:36.139Z,0.77
2022-12-24T11:21:03.972Z,0.60
2022-12-24T11:23:31.966Z,0.57
2022-12-24T11:25:59.656Z,0.53
2022-12-24T11:28:28.024Z,0.60
2022-12-24T11:31:01.312Z,0.60
2022-12-24T11:33:29.207Z,0.60
2022-12-24T11:36:04.313Z,0.73
2022-12-24T11:38:32.997Z,0.93
2022-12-24T11:41:01.785Z,1.03
2022-12-24T11:43:44.580Z,0.70
2022-12-24T11:46:15.494Z,0.90
2022-12-24T11:48:43.441Z,0.70
2022-12-24T11:51:20.278Z,0.70
2022-12-24T11:53:50.379Z,0.50
2022-12-24T11:56:25.525Z,0.60
2022-12-24T11:58:54.619Z,1.17
2022-12-24T12:01:25.513Z,0.60
2022-12-24T12:03:54.879Z,0.70
2022-12-24T12:06:28.225Z,0.60
2022-12-24T12:08:57.672Z,0.60
2022-12-24T12:11:27.412Z,0.77
2022-12-24T12:13:55.981Z,0.50
2022-12-24T12:16:26.798Z,0.70
2022-12-24T12:18:58.012Z,0.50
2022-12-24T12:21:27.827Z,0.57
2022-12-24T12:23:58.537Z,0.63
2022-12-24T12:26:27.088Z,0.83
2022-12-24T12:28:55.674Z,1.20
2022-12-24T12:31:26.487Z,0.57
2022-12-24T12:33:56.071Z,0.93
2022-12-24T12:36:26.454Z,0.77
2022-12-24T12:38:53.823Z,0.73
2022-12-24T12:41:38.504Z,0.60
2022-12-24T12:44:13.949Z,0.53
2022-12-24T12:46:48.067Z,0.80
2022-12-24T12:49:21.664Z,0.70
2022-12-24T12:51:54.610Z,0.97
2022-12-24T12:54:33.489Z,0.73
2022-12-24T12:57:05.969Z,0.87
2022-12-24T12:59:34.855Z,0.80
2022-12-24T13:02:09.755Z,0.87
2022-12-24T13:04:48.890Z,1.23
2022-12-24T13:07:39.553Z,0.33
2022-12-24T13:10:16.031Z,0.83
2022-12-24T13:12:49.827Z,0.80
2022-12-24T13:15:30.271Z,1.10
2022-12-24T13:18:09.251Z,0.70
2022-12-24T13:20:40.155Z,0.70
2022-12-24T13:23:12.466Z,0.97
2022-12-24T13:25:41.009Z,0.80
2022-12-24T13:28:19.307Z,0.30
2022-12-24T13:30:47.245Z,1.10
2022-12-24T13:33:35.880Z,0.90
2022-12-24T13:36:05.401Z,0.70
2022-12-24T13:38:34.349Z,0.83
2022-12-24T13:41:20.557Z,0.90
2022-12-24T13:44:03.010Z,0.90
2022-12-24T13:46:45.286Z,1.20
2022-12-24T13:49:13.204Z,0.70
2022-12-24T13:51:41.975Z,1.00
2022-12-24T13:54:10.957Z,0.83
2022-12-24T13:56:38.296Z,0.93
2022-12-24T13:59:18.507Z,0.70
2022-12-24T14:01:46.271Z,0.87
2022-12-24T14:04:22.979Z,0.70
2022-12-24T14:06:53.645Z,0.73
2022-12-24T14:09:23.074Z,0.90
2022-12-24T14:12:09.197Z,0.70
2022-12-24T14:14:37.572Z,0.90
2022-12-24T14:17:09.625Z,0.77
2022-12-24T14:19:41.965Z,1.00
2022-12-24T14:22:19.989Z,0.97
2022-12-24T14:24:54.017Z,0.80
2022-12-24T14:27:25.209Z,0.77
2022-12-24T14:29:54.373Z,1.20
2022-12-24T14:32:21.709Z,0.80
2022-12-24T14:35:05.345Z,0.70
2022-12-24T14:37:34.935Z,0.87
2022-12-24T14:40:03.644Z,0.80
2022-12-24T14:42:35.188Z,1.17
2022-12-24T14:45:07.680Z,0.80
2022-12-24T14:47:38.438Z,0.97
2022-12-24T14:50:17.468Z,1.17
2022-12-24T14:53:08.208Z,0.90
2022-12-24T14:55:40.455Z,0.80
2022-12-24T14:58:34.998Z,1.00
2022-12-24T15:01:03.567Z,0.80
2022-12-24T15:03:32.507Z,0.80
2022-12-24T15:06:01.467Z,1.00
2022-12-24T15:08:31.965Z,1.00
2022-12-24T15:11:01.436Z,0.90
2022-12-24T15:13:35.257Z,0.90
2022-12-24T15:16:04.976Z,0.77
2022-12-24T15:18:33.899Z,0.70
2022-12-24T15:21:04.583Z,0.70
2022-12-24T15:23:36.605Z,0.80
2022-12-24T15:26:08.396Z,0.73
2022-12-24T15:28:37.127Z,1.30
2022-12-24T15:31:13.205Z,0.90
2022-12-24T15:33:40.682Z,0.70
2022-12-24T15:36:08.804Z,0.67
2022-12-24T15:38:38.566Z,1.20
2022-12-24T15:41:07.844Z,0.80
2022-12-24T15:43:40.020Z,0.90
2022-12-24T15:46:07.710Z,0.40
2022-12-24T15:48:38.124Z,1.03
2022-12-24T15:51:05.809Z,0.57
2022-12-24T15:53:34.432Z,0.70
2022-12-24T15:56:07.406Z,0.80
2022-12-24T15:58:35.980Z,0.97
2022-12-24T16:01:05.026Z,0.80
2022-12-24T16:03:32.711Z,0.30
2022-12-24T16:06:01.048Z,0.37
2022-12-24T16:08:32.842Z,0.80
2022-12-24T16:11:12.347Z,0.40
2022-12-24T16:13:41.163Z,0.83
2022-12-24T16:16:11.172Z,0.67
2022-12-24T16:18:40.131Z,0.30
2022-12-24T16:21:08.008Z,0.50
2022-12-24T16:23:38.274Z,0.70
2022-12-24T16:26:05.917Z,0.70
2022-12-24T16:28:34.968Z,1.23
2022-12-24T16:31:02.368Z,0.80
2022-12-24T16:33:29.894Z,0.67
2022-12-24T16:35:57.407Z,0.67
2022-12-24T16:38:24.827Z,0.60
2022-12-24T16:40:52.651Z,1.00
2022-12-24T16:43:37.594Z,0.93
2022-12-24T16:46:07.108Z,0.70
2022-12-24T16:48:37.194Z,0.70
2022-12-24T16:51:04.638Z,1.00
2022-12-24T16:53:31.992Z,1.07
2022-12-24T16:55:59.321Z,1.27
2022-12-24T16:58:26.683Z,1.07
2022-12-24T17:00:54.412Z,0.90
2022-12-24T17:03:23.264Z,1.17
2022-12-24T17:05:50.860Z,0.90
2022-12-24T17:08:18.207Z,1.00
2022-12-24T17:10:50.886Z,0.90
2022-12-24T17:13:18.292Z,1.00
2022-12-24T17:15:45.661Z,0.80
2022-12-24T17:18:13.091Z,1.10
2022-12-24T17:20:41.766Z,1.03
2022-12-24T17:23:09.097Z,1.27
2022-12-24T17:25:36.538Z,1.07
2022-12-24T17:28:03.899Z,1.30
2022-12-24T17:30:31.278Z,1.20
2022-12-24T17:32:58.610Z,1.60
2022-12-24T17:35:25.949Z,1.60
2022-12-24T17:37:54.972Z,1.30
2022-12-24T17:40:22.318Z,1.50
2022-12-24T17:42:49.673Z,1.50
2022-12-24T17:45:17.022Z,1.20
2022-12-24T17:47:44.345Z,1.53
2022-12-24T17:50:11.844Z,1.50
2022-12-24T17:52:39.189Z,1.67
2022-12-24T17:55:09.027Z,1.80
2022-12-24T17:57:36.375Z,1.23
2022-12-24T18:00:03.943Z,1.57
2022-12-24T18:02:32.047Z,1.70
2022-12-24T18:04:59.753Z,1.20
2022-12-24T18:07:27.085Z,1.20
2022-12-24T18:09:54.593Z,1.60
2022-12-24T18:12:23.431Z,1.30
2022-12-24T18:14:50.788Z,1.20
2022-12-24T18:17:18.129Z,1.27
2022-12-24T18:19:45.481Z,1.30
2022-12-24T18:22:12.872Z,1.00
2022-12-24T18:24:40.472Z,1.10
2022-12-24T18:27:07.792Z,0.97
2022-12-24T18:29:39.828Z,1.20
2022-12-24T18:32:07.201Z,1.30
2022-12-24T18:34:34.739Z,1.40
2022-12-24T18:37:02.088Z,1.27
2022-12-24T18:39:29.436Z,1.60
2022-12-24T18:41:56.833Z,1.83
2022-12-24T18:44:25.648Z,1.70
2022-12-24T18:46:54.640Z,1.50
2022-12-24T18:49:22.517Z,1.50
2022-12-24T18:51:49.863Z,1.27
2022-12-24T18:54:17.240Z,1.60
2022-12-24T18:56:44.594Z,1.60
2022-12-24T18:59:12.021Z,1.50
2022-12-24T19:01:39.502Z,1.40
2022-12-24T19:04:08.237Z,1.50
2022-12-24T19:06:35.634Z,1.70
2022-12-24T19:09:03.008Z,1.47
2022-12-24T19:11:31.070Z,1.63
2022-12-24T19:13:59.729Z,1.60
2022-12-24T19:16:27.820Z,1.70
2022-12-24T19:18:55.284Z,1.33
2022-12-24T19:21:23.982Z,1.33
2022-12-24T19:23:51.729Z,1.50
2022-12-24T19:26:19.676Z,1.60
2022-12-24T19:28:50.388Z,1.33
2022-12-24T19:31:18.827Z,1.67
2022-12-24T19:33:47.925Z,1.17
2022-12-24T19:36:16.428Z,1.60
2022-12-24T19:38:45.226Z,1.33
2022-12-24T19:41:13.441Z,1.30
2022-12-24T19:43:41.445Z,1.70
2022-12-24T19:46:09.677Z,2.00
2022-12-24T19:48:37.724Z,3.50
2022-12-24T19:51:08.082Z,2.17
2022-12-24T19:53:35.850Z,2.80
2022-12-24T19:56:05.262Z,1.73
2022-12-24T19:58:33.635Z,1.70
2022-12-24T20:01:10.973Z,1.60
2022-12-24T20:03:42.014Z,1.63
2022-12-24T20:06:09.514Z,1.73
2022-12-24T20:08:37.155Z,1.70
2022-12-24T20:11:06.652Z,1.33
2022-12-24T20:13:34.255Z,2.63
2022-12-24T20:16:04.753Z,1.40
2022-12-24T20:18:32.261Z,1.53
2022-12-24T20:21:00.046Z,1.50
2022-12-24T20:23:27.549Z,1.60
2022-12-24T20:25:57.541Z,1.93
2022-12-24T20:28:26.711Z,1.83
2022-12-24T20:30:54.413Z,2.00
2022-12-24T20:33:21.767Z,2.80
2022-12-24T20:35:49.375Z,2.43
2022-12-24T20:38:17.429Z,1.70
2022-12-24T20:40:47.464Z,1.73
2022-12-24T20:43:14.869Z,1.63
2022-12-24T20:45:48.948Z,2.47
2022-12-24T20:48:16.514Z,2.13
2022-12-24T20:50:44.211Z,2.70
2022-12-24T20:53:11.638Z,2.10
2022-12-24T20:55:38.973Z,2.13
2022-12-24T20:58:06.360Z,2.03
2022-12-24T21:00:33.841Z,1.90
2022-12-24T21:03:02.621Z,1.80
2022-12-24T21:05:30.066Z,1.87
2022-12-24T21:07:57.583Z,1.90
2022-12-24T21:10:29.059Z,2.10
2022-12-24T21:12:58.989Z,2.03
2022-12-24T21:15:27.355Z,1.40
2022-12-24T21:17:55.252Z,1.80
2022-12-24T21:20:29.711Z,1.20
2022-12-24T21:23:00.842Z,1.77
2022-12-24T21:25:28.818Z,1.50
2022-12-24T21:27:56.340Z,1.40
2022-12-24T21:30:24.093Z,1.50
2022-12-24T21:32:51.914Z,2.43
2022-12-24T21:35:19.294Z,1.90
2022-12-24T21:37:47.958Z,2.00
2022-12-24T21:40:15.341Z,2.20
2022-12-24T21:42:42.691Z,1.50
2022-12-24T21:45:11.131Z,1.50
2022-12-24T21:47:38.656Z,1.50
2022-12-24T21:50:30.132Z,1.43
2022-12-24T21:53:16.441Z,2.03
2022-12-24T21:55:43.912Z,1.50
2022-12-24T21:58:10.410Z,1.50
2022-12-24T22:00:37.728Z,1.53
2022-12-24T22:03:05.545Z,1.60
2022-12-24T22:05:34.511Z,1.60
2022-12-24T22:08:20.986Z,1.53
2022-12-24T22:11:05.840Z,1.60
2022-12-24T22:13:33.922Z,1.90
2022-12-24T22:16:01.445Z,1.73
2022-12-24T22:18:29.302Z,2.00
2022-12-24T22:20:56.777Z,1.73
2022-12-24T22:23:26.467Z,1.73
2022-12-24T22:25:53.782Z,1.70
2022-12-24T22:28:21.155Z,1.77
2022-12-24T22:30:48.499Z,1.40
2022-12-24T22:33:16.029Z,1.73
2022-12-24T22:35:43.403Z,2.00
2022-12-24T22:38:11.069Z,1.60
2022-12-24T22:40:40.902Z,1.60
2022-12-24T22:43:08.270Z,1.73
2022-12-24T22:45:35.621Z,1.63
2022-12-24T22:48:03.568Z,1.87
2022-12-24T22:50:30.905Z,1.60
2022-12-24T22:52:58.257Z,1.60
2022-12-24T22:55:25.590Z,2.00
2022-12-24T22:57:54.275Z,1.63
2022-12-24T23:00:37.358Z,2.40
2022-12-24T23:03:05.042Z,2.10
2022-12-24T23:05:32.555Z,1.90
2022-12-24T23:08:00.019Z,2.00
2022-12-24T23:10:27.417Z,2.50
2022-12-24T23:13:25.219Z,4.10
2022-12-24T23:15:52.672Z,2.90
2022-12-24T23:18:20.208Z,3.23
2022-12-24T23:20:47.550Z,3.10
2022-12-24T23:23:15.423Z,2.83
2022-12-24T23:25:42.763Z,2.80
2022-12-24T23:28:11.554Z,11.90
2022-12-24T23:30:38.908Z,5.50
2022-12-24T23:33:06.291Z,6.37
2022-12-24T23:35:33.705Z,3.20
2022-12-24T23:38:01.109Z,3.43
2022-12-24T23:40:28.483Z,3.33
2022-12-24T23:42:55.947Z,3.20
2022-12-24T23:45:24.608Z,3.23
2022-12-24T23:47:51.980Z,2.63
2022-12-24T23:50:19.372Z,2.13
2022-12-24T23:52:46.762Z,2.70
2022-12-24T23:55:14.139Z,2.53
2022-12-24T23:57:41.478Z,2.37
